Time;durP1;ratioP1;P1;durP2;ratioP2;P2;SDS_P1;SDS_P2;PMS_P1;PMS_P2;Temp;Humidity;BMP_temperature;BMP_pressure;BME280_temperature;BME280_humidity;BME280_pressure;Samples;Min_cycle;Max_cycle;Signal;HPM_P1;HPM_P2
2023/03/28 00:01:43;;;;;;;;;;;1.70;82.30;;;;;;5135854;28;20278;-68
2023/03/28 00:04:10;;;;;;;;;;;1.70;82.30;;;;;;5135995;28;19915;-69
2023/03/28 00:06:37;;;;;;;;;;;1.60;82.20;;;;;;5115545;28;19961;-68
2023/03/28 00:09:04;;;;;;;;;;;1.60;82.30;;;;;;5135617;27;19915;-68
2023/03/28 00:11:30;;;;;;;;;;;1.60;82.40;;;;;;5135772;28;20296;-69
2023/03/28 00:14:02;;;;;;;;;;;1.60;82.40;;;;;;5115852;28;19927;-69
2023/03/28 00:16:32;;;;;;;;;;;1.60;82.40;;;;;;5135545;28;19969;-68
2023/03/28 00:18:59;;;;;;;;;;;1.60;82.50;;;;;;5135635;28;19964;-69
2023/03/28 00:21:26;;;;;;;;;;;1.50;82.40;;;;;;5136022;28;19916;-69
2023/03/28 00:23:52;;;;;;;;;;;1.50;82.50;;;;;;5116954;28;20293;-69
2023/03/28 00:26:18;;;;;;;;;;;1.50;82.60;;;;;;5135348;28;19921;-70
2023/03/28 00:28:46;;;;;;;;;;;1.50;82.60;;;;;;5135520;28;19970;-69
2023/03/28 00:31:12;;;;;;;;;;;1.40;82.60;;;;;;5135447;28;19916;-69
2023/03/28 00:33:37;;;;;;;;;;;1.30;82.60;;;;;;5135520;28;19976;-69
2023/03/28 00:36:03;;;;;;;;;;;1.40;82.70;;;;;;5135972;28;20353;-69
2023/03/28 00:38:30;;;;;;;;;;;1.50;82.80;;;;;;5116005;28;19916;-68
2023/03/28 00:40:56;;;;;;;;;;;1.30;82.80;;;;;;5135649;28;19972;-68
2023/03/28 00:43:33;;;;;;;;;;;1.20;82.70;;;;;;5116172;28;19974;-68
2023/03/28 00:45:58;;;;;;;;;;;1.30;82.80;;;;;;5135185;28;19915;-68
2023/03/28 00:48:24;;;;;;;;;;;1.30;82.90;;;;;;5135048;28;19923;-69
2023/03/28 00:50:50;;;;;;;;;;;1.20;82.80;;;;;;5135129;28;19922;-68
2023/03/28 00:53:17;;;;;;;;;;;1.20;82.90;;;;;;5135071;28;20306;-69
2023/03/28 00:55:48;;;;;;;;;;;1.20;82.80;;;;;;5116531;28;19916;-68
2023/03/28 00:58:16;;;;;;;;;;;1.20;82.80;;;;;;5134904;28;19922;-69
2023/03/28 01:00:45;;;;;;;;;;;1.20;82.90;;;;;;5134901;28;19919;-69
2023/03/28 01:03:12;;;;;;;;;;;1.20;82.90;;;;;;5134739;28;19920;-69
2023/03/28 01:05:38;;;;;;;;;;;1.20;82.90;;;;;;5115242;28;19939;-69
2023/03/28 01:08:09;;;;;;;;;;;1.20;82.90;;;;;;5134873;28;19915;-69
2023/03/28 01:10:35;;;;;;;;;;;1.10;82.90;;;;;;5134760;28;20361;-69
2023/03/28 01:13:01;;;;;;;;;;;1.10;83.00;;;;;;5134567;28;19968;-68
2023/03/28 01:15:28;;;;;;;;;;;1.20;83.00;;;;;;5134707;28;19943;-68
2023/03/28 01:17:54;;;;;;;;;;;1.10;82.90;;;;;;5116129;28;20314;-69
2023/03/28 01:20:28;;;;;;;;;;;1.10;83.00;;;;;;5134528;27;19912;-69
2023/03/28 01:23:07;;;;;;;;;;;1.00;83.00;;;;;;5134281;28;19919;-69
2023/03/28 01:25:46;;;;;;;;;;;1.10;83.00;;;;;;5134318;28;19949;-68
2023/03/28 01:28:31;;;;;;;;;;;1.00;83.00;;;;;;5134409;28;19915;-68
2023/03/28 01:31:08;;;;;;;;;;;1.00;83.00;;;;;;5117174;28;19916;-68
2023/03/28 01:33:47;;;;;;;;;;;1.00;83.10;;;;;;5115525;28;19972;-68
2023/03/28 01:36:30;;;;;;;;;;;0.90;83.10;;;;;;5134332;28;19959;-68
2023/03/28 01:38:59;;;;;;;;;;;0.90;83.20;;;;;;5130630;28;19915;-68
2023/03/28 01:41:29;;;;;;;;;;;0.90;83.20;;;;;;5130788;28;19915;-69
2023/03/28 01:44:04;;;;;;;;;;;0.90;83.30;;;;;;5134424;28;20005;-69
2023/03/28 01:46:34;;;;;;;;;;;0.90;83.30;;;;;;5113820;28;19922;-68
2023/03/28 01:49:06;;;;;;;;;;;0.90;83.30;;;;;;5131418;28;19922;-68
2023/03/28 01:51:48;;;;;;;;;;;0.80;83.30;;;;;;5131564;28;19915;-68
2023/03/28 01:54:32;;;;;;;;;;;0.80;83.40;;;;;;5114005;28;19965;-68
2023/03/28 01:57:09;;;;;;;;;;;0.80;83.30;;;;;;5133998;28;19919;-69
2023/03/28 01:59:38;;;;;;;;;;;0.80;83.40;;;;;;5133961;28;19921;-68
2023/03/28 02:02:06;;;;;;;;;;;0.80;83.30;;;;;;5133898;28;19926;-68
2023/03/28 02:04:32;;;;;;;;;;;0.80;83.30;;;;;;5114006;28;20023;-68
2023/03/28 02:06:58;;;;;;;;;;;0.80;83.30;;;;;;5133862;28;19916;-68
2023/03/28 02:09:25;;;;;;;;;;;0.80;83.50;;;;;;5133799;28;20425;-68
2023/03/28 02:11:56;;;;;;;;;;;0.80;83.20;;;;;;5133683;28;20284;-68
2023/03/28 02:14:24;;;;;;;;;;;0.80;83.20;;;;;;5133756;28;20006;-68
2023/03/28 02:16:52;;;;;;;;;;;0.70;83.20;;;;;;5133795;28;19918;-68
2023/03/28 02:19:21;;;;;;;;;;;0.70;83.30;;;;;;5133554;28;19968;-68
2023/03/28 02:21:52;;;;;;;;;;;0.70;83.40;;;;;;5133467;28;19923;-68
2023/03/28 02:24:18;;;;;;;;;;;0.80;83.40;;;;;;5133540;28;20387;-68
2023/03/28 02:26:43;;;;;;;;;;;0.70;83.40;;;;;;5133642;28;19965;-68
2023/03/28 02:29:09;;;;;;;;;;;0.70;83.40;;;;;;5133636;28;19915;-69
2023/03/28 02:31:35;;;;;;;;;;;0.70;83.40;;;;;;5133550;28;19915;-69
2023/03/28 02:34:02;;;;;;;;;;;0.70;83.40;;;;;;5132384;27;19930;-69
2023/03/28 02:36:41;;;;;;;;;;;0.70;83.50;;;;;;5133825;28;20334;-68
2023/03/28 02:39:22;;;;;;;;;;;0.60;83.50;;;;;;5133540;28;20275;-69
2023/03/28 02:42:00;;;;;;;;;;;0.60;83.50;;;;;;5132024;28;19927;-69
2023/03/28 02:44:34;;;;;;;;;;;0.60;83.50;;;;;;5133372;28;19915;-68
2023/03/28 02:47:09;;;;;;;;;;;0.50;83.50;;;;;;5133140;28;19915;-68
2023/03/28 02:49:46;;;;;;;;;;;0.70;83.60;;;;;;5133223;28;19923;-68
2023/03/28 02:52:20;;;;;;;;;;;0.50;83.50;;;;;;5113147;28;19922;-68
2023/03/28 02:54:50;;;;;;;;;;;0.50;83.60;;;;;;5113569;28;19945;-68
2023/03/28 02:57:35;;;;;;;;;;;0.60;83.70;;;;;;5133220;28;19916;-69
2023/03/28 03:00:08;;;;;;;;;;;0.50;83.70;;;;;;5113413;28;20388;-68
2023/03/28 03:02:34;;;;;;;;;;;0.50;83.70;;;;;;5133469;28;19924;-68
2023/03/28 03:05:00;;;;;;;;;;;0.50;83.70;;;;;;5133205;28;19915;-68
2023/03/28 03:07:26;;;;;;;;;;;0.40;83.70;;;;;;5133187;28;20368;-68
2023/03/28 03:09:52;;;;;;;;;;;0.40;83.70;;;;;;5113728;28;19916;-69
2023/03/28 03:12:19;;;;;;;;;;;0.40;83.80;;;;;;5113232;28;19920;-68
2023/03/28 03:14:45;;;;;;;;;;;0.40;83.80;;;;;;5132940;28;20290;-69
2023/03/28 03:17:10;;;;;;;;;;;0.40;83.80;;;;;;5132870;28;19924;-68
2023/03/28 03:19:36;;;;;;;;;;;0.40;83.80;;;;;;5114489;28;19922;-68
2023/03/28 03:22:02;;;;;;;;;;;0.40;83.90;;;;;;5132758;28;19920;-68
2023/03/28 03:24:28;;;;;;;;;;;0.30;83.80;;;;;;5132941;28;19916;-69
2023/03/28 03:26:53;;;;;;;;;;;0.30;83.90;;;;;;5114449;28;19915;-68
2023/03/28 03:29:19;;;;;;;;;;;0.40;83.90;;;;;;5132905;28;19915;-69
2023/03/28 03:31:45;;;;;;;;;;;0.40;83.90;;;;;;5132863;28;19919;-69
2023/03/28 03:34:10;;;;;;;;;;;0.20;83.80;;;;;;5132733;28;19964;-69
2023/03/28 03:36:36;;;;;;;;;;;0.20;83.90;;;;;;5132683;28;20341;-69
2023/03/28 03:39:02;;;;;;;;;;;0.20;83.90;;;;;;5114322;28;19922;-69
2023/03/28 03:41:28;;;;;;;;;;;0.20;83.90;;;;;;5132683;28;20276;-69
2023/03/28 03:43:53;;;;;;;;;;;0.20;84.00;;;;;;5133336;27;20404;-69
2023/03/28 03:46:19;;;;;;;;;;;0.10;83.90;;;;;;5117895;28;19922;-69
2023/03/28 03:48:44;;;;;;;;;;;0.20;83.90;;;;;;5117012;28;19922;-68
2023/03/28 03:51:10;;;;;;;;;;;0.20;83.90;;;;;;5136119;28;19922;-68
2023/03/28 03:53:35;;;;;;;;;;;0.20;84.00;;;;;;5135930;28;19958;-69
2023/03/28 03:56:01;;;;;;;;;;;0.20;84.00;;;;;;5135845;28;19915;-69
2023/03/28 03:58:27;;;;;;;;;;;0.20;84.00;;;;;;5116153;28;19965;-69
2023/03/28 04:00:53;;;;;;;;;;;0.20;84.00;;;;;;5135889;28;19916;-69
2023/03/28 04:03:18;;;;;;;;;;;0.20;84.00;;;;;;5117799;28;19927;-68
2023/03/28 04:05:44;;;;;;;;;;;0.10;84.00;;;;;;5136226;28;19960;-69
2023/03/28 04:08:09;;;;;;;;;;;0.10;84.00;;;;;;5099285;28;19922;-69
2023/03/28 04:10:35;;;;;;;;;;;0.10;84.00;;;;;;5136257;28;19923;-68
2023/03/28 04:13:00;;;;;;;;;;;0.10;84.00;;;;;;5136042;28;19916;-69
2023/03/28 04:15:26;;;;;;;;;;;0.10;84.00;;;;;;5136017;28;19922;-69
2023/03/28 04:17:55;;;;;;;;;;;0.10;84.00;;;;;;5135970;28;19915;-69
2023/03/28 04:20:25;;;;;;;;;;;0.10;84.10;;;;;;5135897;28;20272;-69
2023/03/28 04:22:52;;;;;;;;;;;0.10;84.10;;;;;;5136071;28;19967;-68
2023/03/28 04:25:20;;;;;;;;;;;0.10;84.20;;;;;;5136422;28;19937;-69
2023/03/28 04:27:46;;;;;;;;;;;0.00;84.20;;;;;;5135825;28;20002;-68
2023/03/28 04:30:12;;;;;;;;;;;0.00;84.20;;;;;;5135653;28;19943;-68
2023/03/28 04:32:39;;;;;;;;;;;0.00;84.20;;;;;;5117024;28;19911;-69
2023/03/28 04:35:05;;;;;;;;;;;0.00;84.20;;;;;;5099109;28;19995;-68
2023/03/28 04:37:30;;;;;;;;;;;-0.10;84.20;;;;;;5135742;28;19943;-68
2023/03/28 04:39:57;;;;;;;;;;;-0.10;84.20;;;;;;5135429;28;19919;-68
2023/03/28 04:42:22;;;;;;;;;;;-0.10;84.20;;;;;;5116017;28;19963;-69
2023/03/28 04:44:48;;;;;;;;;;;-0.10;84.20;;;;;;5135480;28;19923;-68
2023/03/28 04:47:14;;;;;;;;;;;-0.10;84.30;;;;;;5116967;28;20313;-68
2023/03/28 04:49:39;;;;;;;;;;;-0.10;84.30;;;;;;5136026;28;19974;-68
2023/03/28 04:52:05;;;;;;;;;;;-0.20;84.30;;;;;;5136011;28;20026;-69
2023/03/28 04:54:31;;;;;;;;;;;-0.10;84.40;;;;;;5136009;28;19915;-68
2023/03/28 04:56:56;;;;;;;;;;;-0.20;84.40;;;;;;5134476;27;20079;-69
2023/03/28 04:59:22;;;;;;;;;;;-0.20;84.40;;;;;;5135343;28;19915;-69
2023/03/28 05:01:48;;;;;;;;;;;-0.20;84.40;;;;;;5135167;28;20270;-69
2023/03/28 05:04:16;;;;;;;;;;;-0.20;84.40;;;;;;5135322;28;20010;-68
2023/03/28 05:06:43;;;;;;;;;;;-0.20;84.40;;;;;;5135215;28;19924;-69
2023/03/28 05:09:10;;;;;;;;;;;-0.20;84.40;;;;;;5135157;28;19923;-68
2023/03/28 05:11:35;;;;;;;;;;;-0.20;84.40;;;;;;5135045;28;19915;-69
2023/03/28 05:14:01;;;;;;;;;;;-0.20;84.60;;;;;;5134851;28;20440;-68
2023/03/28 05:16:26;;;;;;;;;;;-0.20;84.30;;;;;;5134836;28;19976;-69
2023/03/28 05:18:52;;;;;;;;;;;-0.20;84.30;;;;;;5134794;28;19946;-68
2023/03/28 05:21:17;;;;;;;;;;;-0.20;84.30;;;;;;5134782;28;19976;-67
2023/03/28 05:23:43;;;;;;;;;;;-0.10;84.40;;;;;;5134695;28;20378;-68
2023/03/28 05:26:08;;;;;;;;;;;-0.10;84.30;;;;;;5134773;28;19915;-69
2023/03/28 05:28:34;;;;;;;;;;;-0.10;84.20;;;;;;5134732;28;19926;-69
2023/03/28 05:31:00;;;;;;;;;;;-0.10;84.20;;;;;;5089575;28;20335;-69
2023/03/28 05:33:25;;;;;;;;;;;-0.10;84.20;;;;;;5135202;28;19915;-68
2023/03/28 05:35:52;;;;;;;;;;;0.00;84.30;;;;;;5134662;28;19919;-68
2023/03/28 05:38:18;;;;;;;;;;;0.00;84.30;;;;;;5134513;28;19916;-68
2023/03/28 05:40:43;;;;;;;;;;;-0.10;84.10;;;;;;5134574;28;19922;-68
2023/03/28 05:43:10;;;;;;;;;;;0.00;84.10;;;;;;5134422;28;19920;-68
2023/03/28 05:45:35;;;;;;;;;;;0.00;84.10;;;;;;5134454;28;19915;-68
2023/03/28 05:48:01;;;;;;;;;;;0.00;84.10;;;;;;5134372;28;19999;-68
2023/03/28 05:50:27;;;;;;;;;;;0.00;84.10;;;;;;5134378;28;20279;-68
2023/03/28 05:52:53;;;;;;;;;;;0.00;84.10;;;;;;5134164;28;19980;-68
2023/03/28 05:55:18;;;;;;;;;;;0.00;84.00;;;;;;5134255;28;20270;-68
2023/03/28 05:57:44;;;;;;;;;;;0.00;84.00;;;;;;5134118;28;19998;-68
2023/03/28 06:00:11;;;;;;;;;;;0.10;83.90;;;;;;5114696;28;19954;-68
2023/03/28 06:02:37;;;;;;;;;;;0.10;84.00;;;;;;5134103;28;19923;-68
2023/03/28 06:05:02;;;;;;;;;;;0.10;83.90;;;;;;5134093;28;20356;-68
2023/03/28 06:07:28;;;;;;;;;;;0.20;83.90;;;;;;5133968;27;19916;-68
2023/03/28 06:09:54;;;;;;;;;;;0.20;83.80;;;;;;5134473;28;19916;-68
2023/03/28 06:12:19;;;;;;;;;;;0.30;83.80;;;;;;5133771;28;19919;-68
2023/03/28 06:14:45;;;;;;;;;;;0.30;83.80;;;;;;5133844;28;19938;-68
2023/03/28 06:17:10;;;;;;;;;;;0.40;83.80;;;;;;5134026;28;19965;-68
2023/03/28 06:19:36;;;;;;;;;;;0.40;83.70;;;;;;5133858;28;19922;-68
2023/03/28 06:22:01;;;;;;;;;;;0.40;83.60;;;;;;5133648;28;19919;-68
2023/03/28 06:24:27;;;;;;;;;;;0.50;83.60;;;;;;5133769;28;20368;-68
2023/03/28 06:26:52;;;;;;;;;;;0.60;83.50;;;;;;5133785;28;20361;-68
2023/03/28 06:29:18;;;;;;;;;;;0.60;83.40;;;;;;5133676;28;19915;-68
2023/03/28 06:31:44;;;;;;;;;;;0.80;83.40;;;;;;5133716;28;19967;-68
2023/03/28 06:34:09;;;;;;;;;;;0.80;83.40;;;;;;5133719;28;19915;-68
2023/03/28 06:36:35;;;;;;;;;;;0.90;83.30;;;;;;5133654;28;19947;-68
2023/03/28 06:39:01;;;;;;;;;;;0.90;83.20;;;;;;5133834;28;20388;-69
2023/03/28 06:41:26;;;;;;;;;;;1.00;83.10;;;;;;5133477;28;19922;-69
2023/03/28 06:43:52;;;;;;;;;;;1.10;83.10;;;;;;5133657;28;20420;-69
2023/03/28 06:46:17;;;;;;;;;;;1.20;83.00;;;;;;5115232;28;19916;-69
2023/03/28 06:48:43;;;;;;;;;;;1.20;82.90;;;;;;5113387;28;19947;-69
2023/03/28 06:51:09;;;;;;;;;;;1.30;82.80;;;;;;5114746;28;19915;-69
2023/03/28 06:53:34;;;;;;;;;;;1.30;82.80;;;;;;5115400;28;19920;-69
2023/03/28 06:56:00;;;;;;;;;;;1.40;82.70;;;;;;5097132;28;19923;-69
2023/03/28 06:58:26;;;;;;;;;;;1.50;82.70;;;;;;5097784;28;19922;-69
2023/03/28 07:00:52;;;;;;;;;;;1.50;82.60;;;;;;5114102;28;20014;-70
2023/03/28 07:03:17;;;;;;;;;;;1.60;82.70;;;;;;5133357;28;20383;-69
2023/03/28 07:05:43;;;;;;;;;;;1.80;82.70;;;;;;5115028;28;19915;-70
2023/03/28 07:08:10;;;;;;;;;;;1.80;82.50;;;;;;5097131;28;19915;-69
2023/03/28 07:10:36;;;;;;;;;;;1.90;82.40;;;;;;5113518;28;19922;-70
2023/03/28 07:13:02;;;;;;;;;;;2.00;82.20;;;;;;5133203;28;19916;-70
2023/03/28 07:15:27;;;;;;;;;;;2.20;82.20;;;;;;5133476;28;19943;-69
2023/03/28 07:17:53;;;;;;;;;;;2.30;82.10;;;;;;5132953;28;20283;-70
2023/03/28 07:20:19;;;;;;;;;;;2.30;81.80;;;;;;5135759;27;19915;-70
2023/03/28 07:22:44;;;;;;;;;;;2.40;81.70;;;;;;5136588;28;19971;-70
2023/03/28 07:25:10;;;;;;;;;;;2.60;81.70;;;;;;5136741;28;20381;-70
2023/03/28 07:27:36;;;;;;;;;;;2.70;81.50;;;;;;5116537;28;20422;-70
2023/03/28 07:30:02;;;;;;;;;;;2.80;81.30;;;;;;5117887;28;20352;-69
2023/03/28 07:32:28;;;;;;;;;;;2.80;81.30;;;;;;5117395;28;19916;-70
2023/03/28 07:34:53;;;;;;;;;;;2.90;81.30;;;;;;5116635;28;20369;-69
2023/03/28 07:37:19;;;;;;;;;;;3.00;81.30;;;;;;5136636;28;19923;-69
2023/03/28 07:39:44;;;;;;;;;;;3.00;81.30;;;;;;5136520;28;19927;-68
2023/03/28 07:42:10;;;;;;;;;;;3.00;81.20;;;;;;5136441;28;19934;-69
2023/03/28 07:44:36;;;;;;;;;;;3.00;81.20;;;;;;5136417;28;20002;-69
2023/03/28 07:47:02;;;;;;;;;;;3.10;81.30;;;;;;5117222;28;19997;-69
2023/03/28 07:49:28;;;;;;;;;;;3.20;81.30;;;;;;5116708;28;19916;-69
2023/03/28 07:51:54;;;;;;;;;;;3.20;81.30;;;;;;5116005;28;19916;-69
2023/03/28 07:54:20;;;;;;;;;;;3.40;81.30;;;;;;5117827;28;19930;-70
2023/03/28 07:56:47;;;;;;;;;;;3.50;81.30;;;;;;5136235;28;20001;-69
2023/03/28 07:59:13;;;;;;;;;;;3.60;81.20;;;;;;5136241;28;20015;-68
2023/03/28 08:01:40;;;;;;;;;;;3.70;81.00;;;;;;5135931;28;19915;-70
2023/03/28 08:04:06;;;;;;;;;;;3.90;81.00;;;;;;5136127;28;19934;-69
2023/03/28 08:06:33;;;;;;;;;;;4.00;80.80;;;;;;5099680;28;19941;-69
2023/03/28 08:08:59;;;;;;;;;;;4.20;80.60;;;;;;5118458;28;19915;-69
2023/03/28 08:11:26;;;;;;;;;;;4.30;80.40;;;;;;5136266;28;19922;-69
2023/03/28 08:13:51;;;;;;;;;;;4.50;80.30;;;;;;5136108;28;20034;-69
2023/03/28 08:16:17;;;;;;;;;;;4.60;80.20;;;;;;5116817;28;20420;-70
2023/03/28 08:18:42;;;;;;;;;;;4.70;80.00;;;;;;5117341;28;19919;-69
2023/03/28 08:21:08;;;;;;;;;;;4.90;79.90;;;;;;5135739;28;20277;-69
2023/03/28 08:23:34;;;;;;;;;;;5.00;79.80;;;;;;5116004;28;20280;-69
2023/03/28 08:26:03;;;;;;;;;;;5.10;79.70;;;;;;5135727;28;19964;-69
2023/03/28 08:28:30;;;;;;;;;;;5.20;79.80;;;;;;5135693;28;19915;-69
2023/03/28 08:30:56;;;;;;;;;;;5.30;79.60;;;;;;5116105;28;19923;-69
2023/03/28 08:33:22;;;;;;;;;;;5.40;79.50;;;;;;5135616;28;19923;-68
2023/03/28 08:35:50;;;;;;;;;;;5.50;79.50;;;;;;5115414;28;19915;-69
2023/03/28 08:38:17;;;;;;;;;;;5.60;79.50;;;;;;5100224;28;19916;-69
2023/03/28 08:40:46;;;;;;;;;;;5.80;79.60;;;;;;5116744;28;20002;-69
2023/03/28 08:43:25;;;;;;;;;;;6.00;79.50;;;;;;5100012;28;20008;-69
2023/03/28 08:45:52;;;;;;;;;;;6.10;79.20;;;;;;5136117;28;19916;-68
2023/03/28 08:48:28;;;;;;;;;;;6.30;79.00;;;;;;5135318;28;19954;-69
2023/03/28 08:51:04;;;;;;;;;;;6.30;78.90;;;;;;5116992;28;20026;-69
2023/03/28 08:53:33;;;;;;;;;;;6.30;78.90;;;;;;5135216;28;19922;-71
2023/03/28 08:56:00;;;;;;;;;;;6.40;79.10;;;;;;5116283;28;19961;-70
2023/03/28 08:58:30;;;;;;;;;;;6.30;79.10;;;;;;5115809;28;20019;-70
2023/03/28 09:00:56;;;;;;;;;;;6.40;79.20;;;;;;5116137;28;19926;-69
2023/03/28 09:03:22;;;;;;;;;;;6.50;79.30;;;;;;5135837;28;19919;-69
2023/03/28 09:05:50;;;;;;;;;;;6.50;79.20;;;;;;5099381;28;20369;-69
2023/03/28 09:08:31;;;;;;;;;;;6.50;79.10;;;;;;5100257;28;20272;-69
2023/03/28 09:11:00;;;;;;;;;;;6.50;79.30;;;;;;5135026;28;19922;-69
2023/03/28 09:13:38;;;;;;;;;;;6.60;79.40;;;;;;5135136;28;19919;-69
2023/03/28 09:16:17;;;;;;;;;;;6.70;79.40;;;;;;5116642;28;20112;-68
2023/03/28 09:18:50;;;;;;;;;;;6.90;79.30;;;;;;5134867;28;19919;-68
2023/03/28 09:21:20;;;;;;;;;;;7.00;79.10;;;;;;5098794;28;19915;-68
2023/03/28 09:24:05;;;;;;;;;;;7.20;78.90;;;;;;5134983;28;19964;-69
2023/03/28 09:26:33;;;;;;;;;;;7.10;78.70;;;;;;5101203;28;19939;-68
2023/03/28 09:29:04;;;;;;;;;;;7.20;78.70;;;;;;5116522;28;20019;-69
2023/03/28 09:31:32;;;;;;;;;;;7.20;78.60;;;;;;5115182;28;19976;-68
2023/03/28 09:33:58;;;;;;;;;;;7.30;78.50;;;;;;5097552;28;19947;-68
2023/03/28 09:36:27;;;;;;;;;;;7.40;78.40;;;;;;5116016;28;19916;-68
2023/03/28 09:38:57;;;;;;;;;;;7.40;78.30;;;;;;5134507;28;19923;-69
2023/03/28 09:41:36;;;;;;;;;;;7.40;78.40;;;;;;5116068;27;19923;-68
2023/03/28 09:44:02;;;;;;;;;;;7.40;78.50;;;;;;5134445;28;19926;-68
2023/03/28 09:46:30;;;;;;;;;;;7.50;78.60;;;;;;5113951;28;19916;-68
2023/03/28 09:48:56;;;;;;;;;;;7.50;78.50;;;;;;5134511;28;19919;-68
2023/03/28 09:51:21;;;;;;;;;;;7.60;78.20;;;;;;5114909;28;20011;-68
2023/03/28 09:53:47;;;;;;;;;;;7.60;78.10;;;;;;5134674;28;20288;-67
2023/03/28 09:56:32;;;;;;;;;;;7.60;78.10;;;;;;5134338;28;19921;-67
2023/03/28 09:59:01;;;;;;;;;;;7.60;78.10;;;;;;5118519;28;19919;-67
2023/03/28 10:01:32;;;;;;;;;;;7.70;78.20;;;;;;5134291;28;19923;-67
2023/03/28 10:03:59;;;;;;;;;;;7.60;78.10;;;;;;5134326;28;19920;-67
2023/03/28 10:06:27;;;;;;;;;;;7.60;78.20;;;;;;5134222;28;19919;-68
2023/03/28 10:09:07;;;;;;;;;;;7.70;78.20;;;;;;5114566;28;20010;-68
2023/03/28 10:11:42;;;;;;;;;;;7.80;78.20;;;;;;5115733;28;20002;-68
2023/03/28 10:14:26;;;;;;;;;;;7.80;78.00;;;;;;5114339;28;19916;-67
2023/03/28 10:16:52;;;;;;;;;;;7.90;77.70;;;;;;5095366;28;20434;-67
2023/03/28 10:19:30;;;;;;;;;;;7.80;77.40;;;;;;5134142;28;19915;-67
2023/03/28 10:21:55;;;;;;;;;;;7.80;77.40;;;;;;5131337;28;20002;-67
2023/03/28 10:24:21;;;;;;;;;;;7.80;77.60;;;;;;5133991;28;20376;-67
2023/03/28 10:26:47;;;;;;;;;;;7.80;77.50;;;;;;5133820;28;20006;-67
2023/03/28 10:29:13;;;;;;;;;;;7.90;77.40;;;;;;5114246;28;19919;-67
2023/03/28 10:31:45;;;;;;;;;;;7.90;77.30;;;;;;5133873;28;20378;-67
2023/03/28 10:34:22;;;;;;;;;;;7.90;77.30;;;;;;5133824;28;19922;-67
2023/03/28 10:36:47;;;;;;;;;;;8.10;77.30;;;;;;5133826;28;20414;-66
2023/03/28 10:39:22;;;;;;;;;;;8.20;77.10;;;;;;5133708;28;19917;-67
2023/03/28 10:41:52;;;;;;;;;;;8.20;76.80;;;;;;5114462;28;20057;-67
2023/03/28 10:44:18;;;;;;;;;;;8.30;76.80;;;;;;5133700;28;19915;-67
2023/03/28 10:46:44;;;;;;;;;;;8.30;76.60;;;;;;5133748;28;20006;-67
2023/03/28 10:49:12;;;;;;;;;;;8.20;76.80;;;;;;5133710;28;19941;-68
2023/03/28 10:51:39;;;;;;;;;;;8.40;76.90;;;;;;5115203;28;19962;-67
2023/03/28 10:54:11;;;;;;;;;;;8.60;76.70;;;;;;5134311;27;19927;-67
2023/03/28 10:56:51;;;;;;;;;;;8.60;76.30;;;;;;5137156;28;19927;-67
2023/03/28 10:59:22;;;;;;;;;;;8.60;76.20;;;;;;5137254;28;19915;-67
2023/03/28 11:01:58;;;;;;;;;;;8.60;76.20;;;;;;5117515;28;20319;-67
2023/03/28 11:04:33;;;;;;;;;;;8.60;76.50;;;;;;5118313;28;20377;-67
2023/03/28 11:07:10;;;;;;;;;;;8.70;76.30;;;;;;5099756;28;20415;-67
2023/03/28 11:09:45;;;;;;;;;;;8.70;76.30;;;;;;5134637;28;20047;-68
2023/03/28 11:12:20;;;;;;;;;;;8.70;76.20;;;;;;5118483;28;20376;-68
2023/03/28 11:14:56;;;;;;;;;;;8.80;76.40;;;;;;5136849;28;19916;-68
2023/03/28 11:17:28;;;;;;;;;;;8.80;76.40;;;;;;5136985;28;19918;-68
2023/03/28 11:20:07;;;;;;;;;;;8.80;76.20;;;;;;5117470;28;20002;-67
2023/03/28 11:22:42;;;;;;;;;;;8.70;76.00;;;;;;5136656;28;19969;-67
2023/03/28 11:25:22;;;;;;;;;;;8.70;76.30;;;;;;5136697;28;20299;-67
2023/03/28 11:27:52;;;;;;;;;;;8.70;76.40;;;;;;5136686;28;20011;-67
2023/03/28 11:30:21;;;;;;;;;;;8.70;76.30;;;;;;5136646;28;19915;-67
2023/03/28 11:32:49;;;;;;;;;;;8.70;76.50;;;;;;5136589;28;19921;-67
2023/03/28 11:35:33;;;;;;;;;;;8.70;76.50;;;;;;5100745;28;19972;-66
2023/03/28 11:38:13;;;;;;;;;;;8.70;76.00;;;;;;5136513;28;20318;-67
2023/03/28 11:40:49;;;;;;;;;;;8.60;76.10;;;;;;5136591;28;19960;-68
2023/03/28 11:43:16;;;;;;;;;;;8.70;76.30;;;;;;5117491;28;19930;-68
2023/03/28 11:45:46;;;;;;;;;;;8.90;76.10;;;;;;5136417;28;19922;-67
2023/03/28 11:48:15;;;;;;;;;;;9.10;75.50;;;;;;5136312;28;20261;-67
2023/03/28 11:50:46;;;;;;;;;;;9.30;75.20;;;;;;5136399;28;19915;-67
2023/03/28 11:53:15;;;;;;;;;;;9.30;74.80;;;;;;5136253;28;19916;-69
2023/03/28 11:55:46;;;;;;;;;;;9.60;74.70;;;;;;5136393;28;20341;-68
2023/03/28 11:58:22;;;;;;;;;;;9.70;74.30;;;;;;5136667;28;19919;-67
2023/03/28 12:01:00;;;;;;;;;;;9.70;74.10;;;;;;5136288;28;19923;-67
2023/03/28 12:03:30;;;;;;;;;;;9.90;74.20;;;;;;5132695;28;19925;-68
2023/03/28 12:06:00;;;;;;;;;;;9.90;73.90;;;;;;5114037;28;19920;-69
2023/03/28 12:08:46;;;;;;;;;;;9.80;73.90;;;;;;5132724;28;19919;-68
2023/03/28 12:11:22;;;;;;;;;;;9.80;74.30;;;;;;5136097;28;19916;-69
2023/03/28 12:14:05;;;;;;;;;;;9.80;74.40;;;;;;5117623;28;19911;-69
2023/03/28 12:16:34;;;;;;;;;;;9.70;74.30;;;;;;5135989;28;19916;-68
2023/03/28 12:19:02;;;;;;;;;;;9.70;74.50;;;;;;5136060;28;19911;-66
2023/03/28 12:21:34;;;;;;;;;;;9.70;74.50;;;;;;5100547;28;19915;-69
2023/03/28 12:24:12;;;;;;;;;;;9.80;74.80;;;;;;5115883;28;19919;-68
2023/03/28 12:26:51;;;;;;;;;;;9.80;74.20;;;;;;5117354;28;19931;-67
2023/03/28 12:29:33;;;;;;;;;;;9.70;74.00;;;;;;5135796;28;19923;-68
2023/03/28 12:32:02;;;;;;;;;;;9.70;74.30;;;;;;5135708;28;19916;-68
2023/03/28 12:34:32;;;;;;;;;;;9.60;74.40;;;;;;5135577;28;20372;-69
2023/03/28 12:37:03;;;;;;;;;;;9.70;74.30;;;;;;5117183;28;19950;-68
2023/03/28 12:39:39;;;;;;;;;;;9.70;74.10;;;;;;5135921;28;19915;-68
2023/03/28 12:42:07;;;;;;;;;;;9.80;74.30;;;;;;5135510;28;20288;-68
2023/03/28 12:44:52;;;;;;;;;;;10.00;74.00;;;;;;5136014;28;20380;-68
2023/03/28 12:47:23;;;;;;;;;;;10.10;73.50;;;;;;5113252;28;20391;-68
2023/03/28 12:49:54;;;;;;;;;;;10.20;73.50;;;;;;5131425;28;19915;-67
2023/03/28 12:52:22;;;;;;;;;;;10.30;73.60;;;;;;5132210;28;19927;-69
2023/03/28 12:54:57;;;;;;;;;;;10.20;73.20;;;;;;5135595;28;19955;-69
2023/03/28 12:57:33;;;;;;;;;;;10.20;73.40;;;;;;5114256;28;19916;-68
2023/03/28 13:00:13;;;;;;;;;;;10.20;73.70;;;;;;5115494;28;19989;-68
2023/03/28 13:02:50;;;;;;;;;;;10.30;73.70;;;;;;5135575;28;20410;-68
2023/03/28 13:05:23;;;;;;;;;;;10.30;73.60;;;;;;5135121;28;20444;-68
2023/03/28 13:07:54;;;;;;;;;;;10.30;73.70;;;;;;5116694;28;20338;-69
2023/03/28 13:10:27;;;;;;;;;;;10.30;73.90;;;;;;5135123;28;19938;-68
2023/03/28 13:13:00;;;;;;;;;;;10.30;73.60;;;;;;5135134;28;20368;-68
2023/03/28 13:15:29;;;;;;;;;;;10.30;73.60;;;;;;5135010;28;20376;-68
2023/03/28 13:18:14;;;;;;;;;;;10.40;73.60;;;;;;5134091;27;20010;-69
2023/03/28 13:20:44;;;;;;;;;;;10.30;73.20;;;;;;5135062;28;19915;-69
2023/03/28 13:23:12;;;;;;;;;;;10.20;72.90;;;;;;5135201;28;19965;-69
2023/03/28 13:25:37;;;;;;;;;;;10.20;73.20;;;;;;5134789;28;19915;-69
2023/03/28 13:28:23;;;;;;;;;;;10.10;73.10;;;;;;5098559;28;20001;-69
2023/03/28 13:31:02;;;;;;;;;;;9.90;73.20;;;;;;5118069;28;19916;-68
2023/03/28 13:33:31;;;;;;;;;;;9.90;73.50;;;;;;5134662;28;19967;-69
2023/03/28 13:36:12;;;;;;;;;;;9.80;73.70;;;;;;5134733;28;19916;-68
2023/03/28 13:38:45;;;;;;;;;;;9.70;74.00;;;;;;5134703;28;19915;-69
2023/03/28 13:41:28;;;;;;;;;;;9.80;74.20;;;;;;5134739;28;19911;-69
2023/03/28 13:43:55;;;;;;;;;;;9.80;74.00;;;;;;5133647;28;19923;-69
2023/03/28 13:46:24;;;;;;;;;;;9.70;73.90;;;;;;5098337;28;19919;-69
2023/03/28 13:48:52;;;;;;;;;;;9.70;74.10;;;;;;5134476;28;19923;-69
2023/03/28 13:51:21;;;;;;;;;;;9.70;74.10;;;;;;5134525;28;19915;-68
2023/03/28 13:53:47;;;;;;;;;;;9.70;74.20;;;;;;5112652;28;19941;-69
2023/03/28 13:56:22;;;;;;;;;;;9.80;74.50;;;;;;5134409;28;19915;-69
2023/03/28 13:58:49;;;;;;;;;;;9.80;73.40;;;;;;5131046;28;19919;-69
2023/03/28 14:01:16;;;;;;;;;;;9.90;73.30;;;;;;5134370;28;19941;-68
2023/03/28 14:03:44;;;;;;;;;;;10.00;73.20;;;;;;5134313;28;19927;-67
2023/03/28 14:06:10;;;;;;;;;;;10.20;72.90;;;;;;5134150;28;19921;-68
2023/03/28 14:08:36;;;;;;;;;;;10.40;72.70;;;;;;5134182;28;19922;-69
2023/03/28 14:11:01;;;;;;;;;;;10.60;72.00;;;;;;5134085;28;20018;-68
2023/03/28 14:13:29;;;;;;;;;;;10.60;71.50;;;;;;5134038;28;19911;-69
2023/03/28 14:15:55;;;;;;;;;;;10.60;71.60;;;;;;5133894;28;20360;-69
2023/03/28 14:18:26;;;;;;;;;;;10.70;71.80;;;;;;5134030;28;19919;-69
2023/03/28 14:20:52;;;;;;;;;;;10.70;71.70;;;;;;5134114;28;20001;-70
2023/03/28 14:23:28;;;;;;;;;;;10.80;71.50;;;;;;5115284;28;19919;-70
2023/03/28 14:25:56;;;;;;;;;;;10.80;71.40;;;;;;5133964;28;19915;-69
2023/03/28 14:28:25;;;;;;;;;;;10.60;71.30;;;;;;5113543;28;20317;-69
2023/03/28 14:30:51;;;;;;;;;;;10.50;71.40;;;;;;5133822;28;19983;-69
2023/03/28 14:33:19;;;;;;;;;;;10.70;71.60;;;;;;5114656;28;19954;-69
2023/03/28 14:35:54;;;;;;;;;;;10.40;71.60;;;;;;5133652;28;19915;-70
2023/03/28 14:38:29;;;;;;;;;;;10.40;71.80;;;;;;5133626;28;19922;-70
2023/03/28 14:41:03;;;;;;;;;;;10.40;72.00;;;;;;5134207;28;19961;-70